Terminal Aerodrome Forecast
Issued by NWS Topeka, KS

Home | Current Version | Previous Version | Text Only | Print | Product List | Glossary On
Versions: 1 2 3 4 5 6 7 8 9 10 11 12 13 14 15 16 17 18 19 20 21 22 23 24 25 26 27
628
FTUS43 KTOP 281730
TAFTOP
TAF
KTOP 281730Z 2818/2918 25012G20KT P6SM SCT030
     FM290000 22003KT P6SM FEW250
     FM291500 22010KT P6SM FEW030 SCT250=

USA.gov is the U.S. government's official web portal to all federal, state and local government web resources and services.